createdAt,value
2023-04-18T00:01:57.524Z,7.19
2023-04-18T00:07:01.244Z,7.09
2023-04-18T00:12:05.274Z,7.00
2023-04-18T00:17:09.137Z,6.92
2023-04-18T00:22:13.534Z,6.84
2023-04-18T00:27:18.794Z,6.79
2023-04-18T00:32:21.914Z,6.76
2023-04-18T00:37:25.007Z,6.73
2023-04-18T00:42:29.650Z,6.68
2023-04-18T00:47:32.832Z,6.65
2023-04-18T00:52:37.187Z,6.60
2023-04-18T00:57:41.519Z,6.59
2023-04-18T01:02:44.721Z,6.56
2023-04-18T01:07:48.552Z,6.54
2023-04-18T01:13:10.091Z,6.51
2023-04-18T01:18:13.913Z,6.53
2023-04-18T01:23:18.454Z,6.57
2023-04-18T01:28:23.004Z,6.57
2023-04-18T01:33:26.099Z,6.57
2023-04-18T01:38:29.093Z,6.59
2023-04-18T01:43:32.203Z,6.61
2023-04-18T01:48:35.449Z,6.67
2023-04-18T01:53:38.517Z,6.71
2023-04-18T01:58:41.929Z,6.75
2023-04-18T02:03:45.182Z,6.76
2023-04-18T02:08:48.661Z,6.79
2023-04-18T02:13:52.501Z,6.83
2023-04-18T02:18:55.688Z,6.87
2023-04-18T02:23:58.898Z,6.88
2023-04-18T02:29:02.252Z,6.89
2023-04-18T02:34:05.612Z,6.89
2023-04-18T02:39:08.520Z,6.89
2023-04-18T02:44:12.064Z,6.90
2023-04-18T02:49:15.362Z,6.93
2023-04-18T02:54:18.347Z,6.93
2023-04-18T02:59:21.548Z,6.95
2023-04-18T03:04:24.979Z,6.95
2023-04-18T03:09:28.273Z,6.96
2023-04-18T03:14:31.173Z,6.96
2023-04-18T03:19:34.584Z,6.96
2023-04-18T03:24:37.588Z,6.95
2023-04-18T03:29:40.697Z,6.95
2023-04-18T03:34:43.694Z,6.95
2023-04-18T03:39:47.021Z,6.94
2023-04-18T03:44:50.144Z,6.93
2023-04-18T03:49:54.655Z,6.92
2023-04-18T03:54:57.617Z,6.94
2023-04-18T04:00:01.166Z,6.96
2023-04-18T04:05:05.807Z,6.99
2023-04-18T04:10:09.790Z,7.04
2023-04-18T04:15:13.494Z,7.15
2023-04-18T04:20:23.167Z,7.38
2023-04-18T04:25:29.821Z,8.00
2023-04-18T04:30:33.855Z,8.56
2023-04-18T04:35:37.044Z,8.70
2023-04-18T04:40:40.351Z,8.60
2023-04-18T04:45:43.984Z,8.59
2023-04-18T04:50:58.033Z,8.62
2023-04-18T04:56:01.241Z,8.62
2023-04-18T05:01:04.404Z,8.69
2023-04-18T05:06:07.858Z,8.85
2023-04-18T05:11:11.171Z,9.02
2023-04-18T05:16:14.517Z,9.13
2023-04-18T05:21:18.301Z,9.09
2023-04-18T05:26:22.225Z,9.07
2023-04-18T05:31:26.096Z,9.09
2023-04-18T05:36:29.560Z,9.05
2023-04-18T05:41:32.774Z,8.80
2023-04-18T05:46:36.282Z,8.62
2023-04-18T05:51:39.390Z,8.61
2023-04-18T05:56:42.807Z,8.75
2023-04-18T06:01:46.219Z,9.10
2023-04-18T06:06:49.630Z,9.66
2023-04-18T06:11:52.637Z,10.25
2023-04-18T06:16:56.048Z,10.79
2023-04-18T06:21:59.162Z,12.17
2023-04-18T06:27:02.261Z,14.05
2023-04-18T06:32:06.254Z,15.20
2023-04-18T06:37:09.392Z,17.38
2023-04-18T06:42:12.492Z,19.66
2023-04-18T06:47:16.012Z,21.45
2023-04-18T06:52:19.124Z,22.61
2023-04-18T06:57:22.750Z,23.54
2023-04-18T07:02:26.142Z,24.46
2023-04-18T07:07:30.147Z,25.16
2023-04-18T07:12:34.001Z,25.29
2023-04-18T07:17:37.430Z,25.39
2023-04-18T07:22:41.754Z,25.72
2023-04-18T07:27:45.079Z,26.45
2023-04-18T07:32:48.398Z,26.47
2023-04-18T07:37:54.230Z,25.45
2023-04-18T07:42:57.545Z,25.08
2023-04-18T07:48:02.148Z,25.63
2023-04-18T07:53:05.803Z,26.76
2023-04-18T07:58:09.724Z,27.32
2023-04-18T08:03:13.732Z,27.14
2023-04-18T08:08:17.601Z,27.58
2023-04-18T08:13:20.785Z,27.76
2023-04-18T08:18:24.097Z,27.65
2023-04-18T08:23:27.415Z,27.94
2023-04-18T08:28:30.510Z,28.61
2023-04-18T08:33:33.560Z,26.87
2023-04-18T08:38:37.130Z,24.57
2023-04-18T08:43:40.238Z,25.92
2023-04-18T08:48:43.348Z,27.49
2023-04-18T08:53:48.654Z,28.60
2023-04-18T08:58:52.521Z,29.58
2023-04-18T09:03:55.761Z,29.68
2023-04-18T09:08:59.281Z,30.23
2023-04-18T09:14:02.776Z,30.51
2023-04-18T09:19:11.330Z,30.55
2023-04-18T09:24:29.666Z,30.32
2023-04-18T09:29:49.515Z,30.10
2023-04-18T09:34:58.485Z,30.24
2023-04-18T09:40:18.136Z,30.17
2023-04-18T09:45:22.740Z,29.75
2023-04-18T09:50:25.861Z,29.81
2023-04-18T09:55:31.347Z,29.91
2023-04-18T10:00:37.019Z,30.29
2023-04-18T10:05:41.949Z,30.46
2023-04-18T10:10:47.226Z,29.67
2023-04-18T10:15:52.747Z,27.93
2023-04-18T10:21:05.664Z,25.73
2023-04-18T10:26:10.684Z,22.97
2023-04-18T10:31:16.934Z,21.11
2023-04-18T10:36:21.024Z,20.20
2023-04-18T10:41:31.517Z,19.80
2023-04-18T10:46:36.521Z,19.62
2023-04-18T10:51:40.280Z,19.47
2023-04-18T10:56:53.019Z,19.35
2023-04-18T11:01:57.384Z,19.55
2023-04-18T11:07:00.653Z,19.85
2023-04-18T11:12:11.761Z,19.75
2023-04-18T11:17:23.941Z,19.90
2023-04-18T11:22:27.377Z,19.65
2023-04-18T11:27:30.814Z,18.87
2023-04-18T11:32:35.807Z,18.61
2023-04-18T11:37:40.170Z,18.65
2023-04-18T11:42:43.690Z,18.70
2023-04-18T11:47:47.181Z,18.92
2023-04-18T11:52:51.994Z,19.00
2023-04-18T11:58:00.708Z,18.70
2023-04-18T12:03:06.100Z,18.54
2023-04-18T12:08:12.106Z,18.39
2023-04-18T12:13:15.742Z,18.20
2023-04-18T12:18:22.120Z,18.31
2023-04-18T12:23:40.475Z,18.53
2023-04-18T12:28:46.042Z,18.59
2023-04-18T12:33:50.780Z,18.43
2023-04-18T12:38:53.793Z,18.27
2023-04-18T12:43:57.310Z,18.26
2023-04-18T12:49:00.622Z,18.22
2023-04-18T12:54:04.439Z,17.97
2023-04-18T12:59:08.770Z,17.99
2023-04-18T13:04:13.252Z,18.18
2023-04-18T13:09:17.647Z,18.39
2023-04-18T13:14:21.487Z,18.13
2023-04-18T13:19:24.889Z,17.67
2023-04-18T13:24:28.396Z,17.26
2023-04-18T13:29:32.234Z,16.85
2023-04-18T13:34:39.913Z,16.69
2023-04-18T13:39:43.453Z,16.60
2023-04-18T13:44:47.518Z,16.47
2023-04-18T13:49:50.791Z,16.33
2023-04-18T13:54:54.107Z,16.08
2023-04-18T13:59:57.511Z,15.81
2023-04-18T14:05:01.393Z,15.56
2023-04-18T14:10:06.580Z,15.48
2023-04-18T14:15:31.022Z,15.49
2023-04-18T14:20:37.483Z,15.69
2023-04-18T14:25:40.995Z,15.86
2023-04-18T14:30:44.803Z,16.03
2023-04-18T14:35:47.854Z,16.12
2023-04-18T14:40:51.353Z,15.88
2023-04-18T14:45:54.443Z,15.44
2023-04-18T14:50:59.343Z,15.02
2023-04-18T14:56:02.494Z,14.75
2023-04-18T15:01:06.023Z,14.58
2023-04-18T15:06:09.385Z,14.45
2023-04-18T15:11:12.833Z,14.30
2023-04-18T15:16:17.083Z,14.16
2023-04-18T15:21:20.586Z,14.01
2023-04-18T15:26:24.409Z,13.86
2023-04-18T15:31:28.259Z,13.71
2023-04-18T15:36:35.778Z,13.54
2023-04-18T15:41:39.879Z,13.44
2023-04-18T15:46:43.804Z,13.39
2023-04-18T15:51:47.622Z,13.35
2023-04-18T15:56:52.088Z,13.32
2023-04-18T16:01:55.790Z,13.31
2023-04-18T16:06:59.633Z,13.32
2023-04-18T16:12:04.904Z,13.27
2023-04-18T16:17:08.276Z,13.22
2023-04-18T16:22:12.901Z,13.19
2023-04-18T16:27:17.328Z,13.19
2023-04-18T16:32:20.960Z,13.19
2023-04-18T16:37:24.169Z,13.17
2023-04-18T16:42:27.789Z,13.15
2023-04-18T16:47:31.241Z,13.10
2023-04-18T16:52:34.919Z,13.03
2023-04-18T16:57:38.230Z,12.97
2023-04-18T17:02:43.589Z,12.92
2023-04-18T17:07:50.078Z,12.87
2023-04-18T17:12:53.858Z,12.79
2023-04-18T17:18:00.579Z,12.71
2023-04-18T17:23:04.825Z,12.64
2023-04-18T17:28:08.155Z,12.58
2023-04-18T17:33:11.847Z,12.51
2023-04-18T17:38:15.769Z,12.41
2023-04-18T17:43:19.794Z,12.29
2023-04-18T17:48:23.225Z,12.14
2023-04-18T17:53:27.168Z,11.99
2023-04-18T17:58:30.654Z,11.84
2023-04-18T18:03:33.930Z,11.72
2023-04-18T18:08:37.375Z,11.59
2023-04-18T18:13:40.377Z,11.47
2023-04-18T18:18:44.305Z,11.34
2023-04-18T18:23:48.659Z,11.21
2023-04-18T18:28:52.869Z,11.08
2023-04-18T18:33:56.280Z,10.96
2023-04-18T18:39:00.106Z,10.86
2023-04-18T18:44:03.929Z,10.78
2023-04-18T18:49:08.877Z,10.67
2023-04-18T18:54:13.521Z,10.56
2023-04-18T18:59:17.904Z,10.45
2023-04-18T19:04:22.106Z,10.36
2023-04-18T19:09:26.024Z,10.31
2023-04-18T19:14:30.263Z,10.30
2023-04-18T19:19:34.560Z,10.27
2023-04-18T19:24:37.901Z,10.18
2023-04-18T19:29:41.721Z,10.04
2023-04-18T19:34:46.559Z,9.89
2023-04-18T19:39:51.659Z,9.73
2023-04-18T19:44:56.862Z,9.54
2023-04-18T19:50:01.682Z,9.36
2023-04-18T19:55:11.325Z,9.18
2023-04-18T20:00:17.535Z,8.97
2023-04-18T20:05:21.986Z,8.76
2023-04-18T20:10:25.521Z,8.54
2023-04-18T20:15:30.635Z,8.31
2023-04-18T20:20:34.174Z,8.08
2023-04-18T20:25:37.550Z,7.86
2023-04-18T20:30:41.337Z,7.67
2023-04-18T20:35:45.012Z,7.51
2023-04-18T20:40:49.262Z,7.38
2023-04-18T20:45:54.062Z,7.27
2023-04-18T20:50:57.298Z,7.17
2023-04-18T20:56:03.247Z,7.05
2023-04-18T21:01:07.270Z,6.93
2023-04-18T21:06:11.037Z,6.81
2023-04-18T21:11:14.740Z,6.70
2023-04-18T21:16:18.399Z,6.61
2023-04-18T21:21:21.795Z,6.51
2023-04-18T21:26:25.184Z,6.42
2023-04-18T21:31:29.812Z,6.36
2023-04-18T21:36:33.148Z,6.32
2023-04-18T21:41:36.138Z,6.31
2023-04-18T21:46:39.969Z,6.31
2023-04-18T21:51:43.685Z,6.31
2023-04-18T21:56:47.298Z,6.26
2023-04-18T22:01:51.015Z,6.17
2023-04-18T22:06:54.695Z,6.03
2023-04-18T22:11:58.061Z,5.89
2023-04-18T22:17:05.042Z,5.74
2023-04-18T22:22:08.269Z,5.63
2023-04-18T22:27:11.668Z,5.59
2023-04-18T22:32:14.671Z,5.58
2023-04-18T22:37:17.993Z,5.58
2023-04-18T22:42:21.392Z,5.54
2023-04-18T22:47:24.460Z,5.47
2023-04-18T22:52:27.814Z,5.41
2023-04-18T22:57:31.536Z,5.36
2023-04-18T23:02:35.012Z,5.34
2023-04-18T23:07:38.467Z,5.33
2023-04-18T23:12:41.670Z,5.33
2023-04-18T23:17:44.884Z,5.35
2023-04-18T23:22:51.998Z,5.36
2023-04-18T23:27:55.285Z,5.36
2023-04-18T23:32:58.438Z,5.37
2023-04-18T23:38:01.613Z,5.37
2023-04-18T23:43:04.922Z,5.35
2023-04-18T23:48:08.334Z,5.31
2023-04-18T23:53:11.327Z,5.26
2023-04-18T23:58:15.149Z,5.20
